29°C Temp
19°C Dewpoint
55% Humidity
Temperature
8 KM/H
5 MPH
4 KTS
60°
East North
East

Wind Speed
Clear
Conditions
Pressure 1008.92 (hPa) - 29.79 (in)
Visibility 6.2 (mi) - 10.0 (km)

Current Conditions
LEMG
Location 9(km)
Metar :LEMG 031800Z 06004KT 340V100 CAVOK 29/19 Q1009 NOSIG
Mon 3rd August 20:00 pm

Airport
  Metar Aviation API Data Provided by https://www.checkwx.com/ PHP scripts by weather34.com ©2020